sensor_id;sensor_type;location;lat;lon;timestamp;temperature;humidity
44695;DHT22;32845;59.422;17.930;2023-05-02T00:00:11;7.80;99.90
44695;DHT22;32845;59.422;17.930;2023-05-02T00:04:43;7.80;99.90
44695;DHT22;32845;59.422;17.930;2023-05-02T00:09:13;7.80;99.90
44695;DHT22;32845;59.422;17.930;2023-05-02T00:13:45;7.70;99.90
44695;DHT22;32845;59.422;17.930;2023-05-02T00:18:15;7.60;99.90
44695;DHT22;32845;59.422;17.930;2023-05-02T00:22:46;7.50;99.90
44695;DHT22;32845;59.422;17.930;2023-05-02T00:27:17;7.50;99.90
44695;DHT22;32845;59.422;17.930;2023-05-02T00:31:48;7.40;99.90
44695;DHT22;32845;59.422;17.930;2023-05-02T00:36:19;7.40;99.90
44695;DHT22;32845;59.422;17.930;2023-05-02T00:40:50;7.40;99.90
44695;DHT22;32845;59.422;17.930;2023-05-02T00:45:22;7.40;99.90
44695;DHT22;32845;59.422;17.930;2023-05-02T00:49:52;7.30;99.90
44695;DHT22;32845;59.422;17.930;2023-05-02T00:54:23;7.10;99.90
44695;DHT22;32845;59.422;17.930;2023-05-02T00:58:54;7.00;99.90
44695;DHT22;32845;59.422;17.930;2023-05-02T01:03:40;6.90;99.90
44695;DHT22;32845;59.422;17.930;2023-05-02T01:08:51;6.80;99.90
44695;DHT22;32845;59.422;17.930;2023-05-02T01:13:32;6.70;99.90
44695;DHT22;32845;59.422;17.930;2023-05-02T01:18:04;6.60;99.90
44695;DHT22;32845;59.422;17.930;2023-05-02T01:22:37;6.50;99.90
44695;DHT22;32845;59.422;17.930;2023-05-02T01:32:03;6.30;99.90
44695;DHT22;32845;59.422;17.930;2023-05-02T01:36:37;6.30;99.90
44695;DHT22;32845;59.422;17.930;2023-05-02T01:41:12;6.20;99.90
44695;DHT22;32845;59.422;17.930;2023-05-02T01:45:44;6.10;99.90
44695;DHT22;32845;59.422;17.930;2023-05-02T01:50:22;6.00;99.90
44695;DHT22;32845;59.422;17.930;2023-05-02T01:54:54;5.90;99.90
44695;DHT22;32845;59.422;17.930;2023-05-02T01:59:27;5.90;99.90
44695;DHT22;32845;59.422;17.930;2023-05-02T02:03:59;5.80;99.90
44695;DHT22;32845;59.422;17.930;2023-05-02T02:08:30;5.80;99.90
44695;DHT22;32845;59.422;17.930;2023-05-02T02:13:11;5.70;99.90
44695;DHT22;32845;59.422;17.930;2023-05-02T02:17:47;5.70;99.90
44695;DHT22;32845;59.422;17.930;2023-05-02T02:22:19;5.60;99.90
44695;DHT22;32845;59.422;17.930;2023-05-02T02:26:50;5.50;99.90
44695;DHT22;32845;59.422;17.930;2023-05-02T02:31:21;5.50;99.90
44695;DHT22;32845;59.422;17.930;2023-05-02T02:36:13;5.40;99.90
44695;DHT22;32845;59.422;17.930;2023-05-02T02:41:09;5.40;99.90
44695;DHT22;32845;59.422;17.930;2023-05-02T02:50:42;5.20;99.90
44695;DHT22;32845;59.422;17.930;2023-05-02T03:04:39;5.00;99.90
44695;DHT22;32845;59.422;17.930;2023-05-02T03:09:15;4.90;99.90
44695;DHT22;32845;59.422;17.930;2023-05-02T03:13:48;4.90;99.90
44695;DHT22;32845;59.422;17.930;2023-05-02T03:18:19;4.80;99.90
44695;DHT22;32845;59.422;17.930;2023-05-02T03:22:50;4.70;99.90
44695;DHT22;32845;59.422;17.930;2023-05-02T03:27:21;4.70;99.90
44695;DHT22;32845;59.422;17.930;2023-05-02T03:31:52;4.70;99.90
44695;DHT22;32845;59.422;17.930;2023-05-02T03:36:22;4.70;99.90
44695;DHT22;32845;59.422;17.930;2023-05-02T03:40:56;4.60;99.90
44695;DHT22;32845;59.422;17.930;2023-05-02T03:45:27;4.60;99.90
44695;DHT22;32845;59.422;17.930;2023-05-02T03:49:58;4.60;99.90
44695;DHT22;32845;59.422;17.930;2023-05-02T03:54:31;4.60;99.90
44695;DHT22;32845;59.422;17.930;2023-05-02T03:59:02;4.50;99.90
44695;DHT22;32845;59.422;17.930;2023-05-02T04:03:33;4.50;99.90
44695;DHT22;32845;59.422;17.930;2023-05-02T04:08:04;4.50;99.90
44695;DHT22;32845;59.422;17.930;2023-05-02T04:12:34;4.40;99.90
44695;DHT22;32845;59.422;17.930;2023-05-02T04:17:05;4.40;99.90
44695;DHT22;32845;59.422;17.930;2023-05-02T04:21:36;4.40;99.90
44695;DHT22;32845;59.422;17.930;2023-05-02T04:26:06;4.40;99.90
44695;DHT22;32845;59.422;17.930;2023-05-02T04:30:37;4.40;99.90
44695;DHT22;32845;59.422;17.930;2023-05-02T04:35:08;4.40;99.90
44695;DHT22;32845;59.422;17.930;2023-05-02T04:39:39;4.30;99.90
44695;DHT22;32845;59.422;17.930;2023-05-02T04:44:09;4.30;99.90
44695;DHT22;32845;59.422;17.930;2023-05-02T04:48:40;4.30;99.90
44695;DHT22;32845;59.422;17.930;2023-05-02T04:53:11;4.30;99.90
44695;DHT22;32845;59.422;17.930;2023-05-02T04:57:42;4.30;99.90
44695;DHT22;32845;59.422;17.930;2023-05-02T05:02:12;4.30;99.90
44695;DHT22;32845;59.422;17.930;2023-05-02T05:06:43;4.30;99.90
44695;DHT22;32845;59.422;17.930;2023-05-02T05:11:14;4.40;99.90
44695;DHT22;32845;59.422;17.930;2023-05-02T05:15:47;4.40;99.90
44695;DHT22;32845;59.422;17.930;2023-05-02T05:20:18;4.40;99.90
44695;DHT22;32845;59.422;17.930;2023-05-02T05:24:52;4.40;99.90
44695;DHT22;32845;59.422;17.930;2023-05-02T05:29:23;4.40;99.90
44695;DHT22;32845;59.422;17.930;2023-05-02T05:33:54;4.40;99.90
44695;DHT22;32845;59.422;17.930;2023-05-02T05:38:24;4.40;99.90
44695;DHT22;32845;59.422;17.930;2023-05-02T05:42:55;4.40;99.90
44695;DHT22;32845;59.422;17.930;2023-05-02T05:47:25;4.40;99.90
44695;DHT22;32845;59.422;17.930;2023-05-02T05:51:56;4.40;99.90
44695;DHT22;32845;59.422;17.930;2023-05-02T05:56:27;4.40;99.90
44695;DHT22;32845;59.422;17.930;2023-05-02T06:00:57;4.40;99.90
44695;DHT22;32845;59.422;17.930;2023-05-02T06:05:28;4.40;99.90
44695;DHT22;32845;59.422;17.930;2023-05-02T06:09:59;4.40;99.90
44695;DHT22;32845;59.422;17.930;2023-05-02T06:14:30;4.40;99.90
44695;DHT22;32845;59.422;17.930;2023-05-02T06:19:00;4.40;99.90
44695;DHT22;32845;59.422;17.930;2023-05-02T06:23:31;4.50;99.90
44695;DHT22;32845;59.422;17.930;2023-05-02T06:28:02;4.50;99.90
44695;DHT22;32845;59.422;17.930;2023-05-02T06:32:32;4.50;99.90
44695;DHT22;32845;59.422;17.930;2023-05-02T06:37:03;4.60;99.90
44695;DHT22;32845;59.422;17.930;2023-05-02T06:41:34;4.60;99.90
44695;DHT22;32845;59.422;17.930;2023-05-02T06:46:04;4.60;99.90
44695;DHT22;32845;59.422;17.930;2023-05-02T06:50:35;4.60;99.90
44695;DHT22;32845;59.422;17.930;2023-05-02T06:55:06;4.60;99.90
44695;DHT22;32845;59.422;17.930;2023-05-02T06:59:37;4.60;99.90
44695;DHT22;32845;59.422;17.930;2023-05-02T07:04:07;4.60;99.90
44695;DHT22;32845;59.422;17.930;2023-05-02T07:08:38;4.70;99.90
44695;DHT22;32845;59.422;17.930;2023-05-02T07:13:09;4.60;99.90
44695;DHT22;32845;59.422;17.930;2023-05-02T07:17:39;4.60;99.90
44695;DHT22;32845;59.422;17.930;2023-05-02T07:22:10;4.60;99.90
44695;DHT22;32845;59.422;17.930;2023-05-02T07:26:41;4.70;99.90
44695;DHT22;32845;59.422;17.930;2023-05-02T07:31:11;4.70;99.90
44695;DHT22;32845;59.422;17.930;2023-05-02T07:35:43;4.70;99.90
44695;DHT22;32845;59.422;17.930;2023-05-02T07:40:13;4.80;99.90
44695;DHT22;32845;59.422;17.930;2023-05-02T07:44:44;4.90;99.90
44695;DHT22;32845;59.422;17.930;2023-05-02T07:49:15;4.90;99.90
44695;DHT22;32845;59.422;17.930;2023-05-02T07:53:46;5.10;99.90
44695;DHT22;32845;59.422;17.930;2023-05-02T07:58:16;5.20;99.90
44695;DHT22;32845;59.422;17.930;2023-05-02T08:02:47;5.40;99.90
44695;DHT22;32845;59.422;17.930;2023-05-02T08:07:17;5.50;99.90
44695;DHT22;32845;59.422;17.930;2023-05-02T08:11:48;5.50;99.90
44695;DHT22;32845;59.422;17.930;2023-05-02T08:16:19;5.50;99.90
44695;DHT22;32845;59.422;17.930;2023-05-02T08:20:49;5.60;99.90
44695;DHT22;32845;59.422;17.930;2023-05-02T08:25:20;5.70;99.90
44695;DHT22;32845;59.422;17.930;2023-05-02T08:29:52;5.90;99.90
44695;DHT22;32845;59.422;17.930;2023-05-02T08:34:23;5.90;99.90
44695;DHT22;32845;59.422;17.930;2023-05-02T08:38:53;5.80;99.90
44695;DHT22;32845;59.422;17.930;2023-05-02T08:43:24;5.70;99.90
44695;DHT22;32845;59.422;17.930;2023-05-02T08:47:55;5.80;99.90
44695;DHT22;32845;59.422;17.930;2023-05-02T08:52:26;5.90;99.90
44695;DHT22;32845;59.422;17.930;2023-05-02T08:56:58;6.10;99.90
44695;DHT22;32845;59.422;17.930;2023-05-02T09:01:32;6.40;99.90
44695;DHT22;32845;59.422;17.930;2023-05-02T09:06:11;6.60;99.90
44695;DHT22;32845;59.422;17.930;2023-05-02T09:10:43;6.80;99.90
44695;DHT22;32845;59.422;17.930;2023-05-02T09:15:16;6.90;99.90
44695;DHT22;32845;59.422;17.930;2023-05-02T09:19:59;7.00;99.90
44695;DHT22;32845;59.422;17.930;2023-05-02T09:24:29;7.10;99.90
44695;DHT22;32845;59.422;17.930;2023-05-02T09:29:03;7.20;99.90
44695;DHT22;32845;59.422;17.930;2023-05-02T09:33:34;7.40;99.90
44695;DHT22;32845;59.422;17.930;2023-05-02T09:38:18;7.50;99.90
44695;DHT22;32845;59.422;17.930;2023-05-02T09:42:50;7.70;99.90
44695;DHT22;32845;59.422;17.930;2023-05-02T09:47:24;7.70;99.90
44695;DHT22;32845;59.422;17.930;2023-05-02T09:52:12;7.80;99.90
44695;DHT22;32845;59.422;17.930;2023-05-02T09:56:56;8.00;99.90
44695;DHT22;32845;59.422;17.930;2023-05-02T10:01:26;8.10;99.90
44695;DHT22;32845;59.422;17.930;2023-05-02T10:05:57;8.20;99.90
44695;DHT22;32845;59.422;17.930;2023-05-02T10:10:29;8.20;99.90
44695;DHT22;32845;59.422;17.930;2023-05-02T10:15:03;8.10;99.90
44695;DHT22;32845;59.422;17.930;2023-05-02T10:19:55;8.20;99.90
44695;DHT22;32845;59.422;17.930;2023-05-02T10:24:27;8.30;99.90
44695;DHT22;32845;59.422;17.930;2023-05-02T10:28:58;8.60;99.90
44695;DHT22;32845;59.422;17.930;2023-05-02T10:33:30;8.90;99.90
44695;DHT22;32845;59.422;17.930;2023-05-02T10:38:05;9.00;99.90
44695;DHT22;32845;59.422;17.930;2023-05-02T10:42:44;9.30;99.90
44695;DHT22;32845;59.422;17.930;2023-05-02T10:51:52;9.50;99.90
44695;DHT22;32845;59.422;17.930;2023-05-02T10:56:22;9.30;99.90
44695;DHT22;32845;59.422;17.930;2023-05-02T11:06:04;9.10;99.90
44695;DHT22;32845;59.422;17.930;2023-05-02T11:10:36;9.30;99.90
44695;DHT22;32845;59.422;17.930;2023-05-02T11:15:07;9.70;99.90
44695;DHT22;32845;59.422;17.930;2023-05-02T11:24:39;10.60;99.90
44695;DHT22;32845;59.422;17.930;2023-05-02T11:29:10;10.90;99.90
44695;DHT22;32845;59.422;17.930;2023-05-02T11:33:42;11.00;99.90
44695;DHT22;32845;59.422;17.930;2023-05-02T11:38:14;10.90;99.90
44695;DHT22;32845;59.422;17.930;2023-05-02T11:42:45;11.10;99.90
44695;DHT22;32845;59.422;17.930;2023-05-02T11:47:16;11.50;99.90
44695;DHT22;32845;59.422;17.930;2023-05-02T11:51:47;12.00;99.90
44695;DHT22;32845;59.422;17.930;2023-05-02T11:56:22;12.30;99.90
44695;DHT22;32845;59.422;17.930;2023-05-02T12:01:13;12.60;99.90
44695;DHT22;32845;59.422;17.930;2023-05-02T12:05:44;14.20;94.60
44695;DHT22;32845;59.422;17.930;2023-05-02T12:10:15;14.50;95.40
44695;DHT22;32845;59.422;17.930;2023-05-02T12:14:45;14.70;93.40
44695;DHT22;32845;59.422;17.930;2023-05-02T12:19:16;15.00;90.70
44695;DHT22;32845;59.422;17.930;2023-05-02T12:23:47;14.70;90.10
44695;DHT22;32845;59.422;17.930;2023-05-02T12:28:18;14.70;91.30
44695;DHT22;32845;59.422;17.930;2023-05-02T12:33:00;15.30;90.70
44695;DHT22;32845;59.422;17.930;2023-05-02T12:37:31;15.30;86.80
44695;DHT22;32845;59.422;17.930;2023-05-02T12:42:13;14.70;85.90
44695;DHT22;32845;59.422;17.930;2023-05-02T12:46:57;14.50;84.90
44695;DHT22;32845;59.422;17.930;2023-05-02T12:51:28;14.70;85.00
44695;DHT22;32845;59.422;17.930;2023-05-02T12:56:01;14.50;89.00
44695;DHT22;32845;59.422;17.930;2023-05-02T13:00:36;14.10;87.00
44695;DHT22;32845;59.422;17.930;2023-05-02T13:05:33;13.50;87.70
44695;DHT22;32845;59.422;17.930;2023-05-02T13:10:04;13.20;88.30
44695;DHT22;32845;59.422;17.930;2023-05-02T13:14:35;13.60;90.00
44695;DHT22;32845;59.422;17.930;2023-05-02T13:19:05;13.90;88.30
44695;DHT22;32845;59.422;17.930;2023-05-02T13:23:36;14.10;84.70
44695;DHT22;32845;59.422;17.930;2023-05-02T13:28:08;14.00;88.10
44695;DHT22;32845;59.422;17.930;2023-05-02T13:32:39;14.00;85.10
44695;DHT22;32845;59.422;17.930;2023-05-02T13:37:10;13.80;88.40
44695;DHT22;32845;59.422;17.930;2023-05-02T13:41:40;13.60;88.50
44695;DHT22;32845;59.422;17.930;2023-05-02T13:46:11;13.50;88.30
44695;DHT22;32845;59.422;17.930;2023-05-02T13:50:42;13.50;86.80
44695;DHT22;32845;59.422;17.930;2023-05-02T13:55:12;13.60;86.20
44695;DHT22;32845;59.422;17.930;2023-05-02T13:59:43;13.60;87.30
44695;DHT22;32845;59.422;17.930;2023-05-02T14:04:13;13.30;84.00
44695;DHT22;32845;59.422;17.930;2023-05-02T14:08:44;12.80;86.50
44695;DHT22;32845;59.422;17.930;2023-05-02T14:13:15;12.40;88.00
44695;DHT22;32845;59.422;17.930;2023-05-02T14:17:45;12.10;89.20
44695;DHT22;32845;59.422;17.930;2023-05-02T14:22:16;12.00;90.30
44695;DHT22;32845;59.422;17.930;2023-05-02T14:26:46;12.10;90.30
44695;DHT22;32845;59.422;17.930;2023-05-02T14:31:17;12.30;91.00
44695;DHT22;32845;59.422;17.930;2023-05-02T14:35:48;12.40;90.40
44695;DHT22;32845;59.422;17.930;2023-05-02T14:40:18;12.40;89.80
44695;DHT22;32845;59.422;17.930;2023-05-02T14:44:49;12.40;90.70
44695;DHT22;32845;59.422;17.930;2023-05-02T14:49:21;12.30;90.30
44695;DHT22;32845;59.422;17.930;2023-05-02T14:53:51;12.30;90.30
44695;DHT22;32845;59.422;17.930;2023-05-02T14:58:23;12.20;90.50
44695;DHT22;32845;59.422;17.930;2023-05-02T15:02:54;12.10;90.80
44695;DHT22;32845;59.422;17.930;2023-05-02T15:07:24;12.10;90.90
44695;DHT22;32845;59.422;17.930;2023-05-02T15:11:56;12.10;91.20
44695;DHT22;32845;59.422;17.930;2023-05-02T15:16:26;12.10;90.90
44695;DHT22;32845;59.422;17.930;2023-05-02T15:20:57;12.10;90.90
44695;DHT22;32845;59.422;17.930;2023-05-02T15:25:27;12.10;91.20
44695;DHT22;32845;59.422;17.930;2023-05-02T15:29:58;12.00;91.40
44695;DHT22;32845;59.422;17.930;2023-05-02T15:34:29;12.10;91.50
44695;DHT22;32845;59.422;17.930;2023-05-02T15:39:00;12.00;91.00
44695;DHT22;32845;59.422;17.930;2023-05-02T15:43:30;11.90;91.20
44695;DHT22;32845;59.422;17.930;2023-05-02T15:48:01;11.80;91.10
44695;DHT22;32845;59.422;17.930;2023-05-02T15:52:31;11.80;91.20
44695;DHT22;32845;59.422;17.930;2023-05-02T15:57:02;11.90;91.80
44695;DHT22;32845;59.422;17.930;2023-05-02T16:01:33;12.00;91.30
44695;DHT22;32845;59.422;17.930;2023-05-02T16:06:03;12.00;91.30
44695;DHT22;32845;59.422;17.930;2023-05-02T16:10:35;12.00;91.00
44695;DHT22;32845;59.422;17.930;2023-05-02T16:15:08;12.10;90.70
44695;DHT22;32845;59.422;17.930;2023-05-02T16:19:39;12.00;90.60
44695;DHT22;32845;59.422;17.930;2023-05-02T16:24:09;11.90;90.60
44695;DHT22;32845;59.422;17.930;2023-05-02T16:28:40;11.70;90.90
44695;DHT22;32845;59.422;17.930;2023-05-02T16:33:10;11.60;91.80
44695;DHT22;32845;59.422;17.930;2023-05-02T16:37:41;11.50;91.40
44695;DHT22;32845;59.422;17.930;2023-05-02T16:42:12;11.40;91.50
44695;DHT22;32845;59.422;17.930;2023-05-02T16:46:42;11.30;91.90
44695;DHT22;32845;59.422;17.930;2023-05-02T16:51:13;11.20;92.20
44695;DHT22;32845;59.422;17.930;2023-05-02T16:55:44;11.20;92.20
44695;DHT22;32845;59.422;17.930;2023-05-02T17:00:15;11.20;92.70
44695;DHT22;32845;59.422;17.930;2023-05-02T17:04:47;11.30;92.50
44695;DHT22;32845;59.422;17.930;2023-05-02T17:09:17;11.30;92.70
44695;DHT22;32845;59.422;17.930;2023-05-02T17:13:48;11.20;92.80
44695;DHT22;32845;59.422;17.930;2023-05-02T17:18:19;11.10;93.00
44695;DHT22;32845;59.422;17.930;2023-05-02T17:22:49;11.00;92.60
44695;DHT22;32845;59.422;17.930;2023-05-02T17:27:20;10.80;93.50
44695;DHT22;32845;59.422;17.930;2023-05-02T17:31:51;10.70;93.40
44695;DHT22;32845;59.422;17.930;2023-05-02T17:36:21;10.60;93.60
44695;DHT22;32845;59.422;17.930;2023-05-02T17:40:57;10.50;94.20
44695;DHT22;32845;59.422;17.930;2023-05-02T17:45:27;10.40;94.70
44695;DHT22;32845;59.422;17.930;2023-05-02T17:49:58;10.20;94.70
44695;DHT22;32845;59.422;17.930;2023-05-02T17:54:31;10.10;95.40
44695;DHT22;32845;59.422;17.930;2023-05-02T17:59:02;10.00;95.70
44695;DHT22;32845;59.422;17.930;2023-05-02T18:03:37;9.80;95.10
44695;DHT22;32845;59.422;17.930;2023-05-02T18:08:07;9.70;96.20
44695;DHT22;32845;59.422;17.930;2023-05-02T18:12:38;9.60;96.40
44695;DHT22;32845;59.422;17.930;2023-05-02T18:17:08;9.50;96.10
44695;DHT22;32845;59.422;17.930;2023-05-02T18:21:39;9.40;96.40
44695;DHT22;32845;59.422;17.930;2023-05-02T18:26:11;9.30;96.70
44695;DHT22;32845;59.422;17.930;2023-05-02T18:30:42;9.20;97.50
44695;DHT22;32845;59.422;17.930;2023-05-02T18:35:12;9.00;97.90
44695;DHT22;32845;59.422;17.930;2023-05-02T18:39:43;8.80;98.30
44695;DHT22;32845;59.422;17.930;2023-05-02T18:44:14;8.60;98.40
44695;DHT22;32845;59.422;17.930;2023-05-02T18:48:44;8.50;98.90
44695;DHT22;32845;59.422;17.930;2023-05-02T18:53:15;8.50;99.90
44695;DHT22;32845;59.422;17.930;2023-05-02T18:57:46;8.30;99.90
44695;DHT22;32845;59.422;17.930;2023-05-02T19:02:16;8.20;99.90
44695;DHT22;32845;59.422;17.930;2023-05-02T19:06:47;8.10;99.90
44695;DHT22;32845;59.422;17.930;2023-05-02T19:11:17;8.00;99.90
44695;DHT22;32845;59.422;17.930;2023-05-02T19:15:49;7.90;99.90
44695;DHT22;32845;59.422;17.930;2023-05-02T19:20:20;7.80;99.90
44695;DHT22;32845;59.422;17.930;2023-05-02T19:24:50;7.80;99.90
44695;DHT22;32845;59.422;17.930;2023-05-02T19:29:21;7.70;99.90
44695;DHT22;32845;59.422;17.930;2023-05-02T19:33:52;7.70;99.90
44695;DHT22;32845;59.422;17.930;2023-05-02T19:38:23;7.70;99.90
44695;DHT22;32845;59.422;17.930;2023-05-02T19:42:54;7.70;99.90
44695;DHT22;32845;59.422;17.930;2023-05-02T19:47:25;7.60;99.90
44695;DHT22;32845;59.422;17.930;2023-05-02T19:52:01;7.60;99.90
44695;DHT22;32845;59.422;17.930;2023-05-02T19:56:32;7.60;99.90
44695;DHT22;32845;59.422;17.930;2023-05-02T20:01:03;7.60;99.90
44695;DHT22;32845;59.422;17.930;2023-05-02T20:05:33;7.60;99.90
44695;DHT22;32845;59.422;17.930;2023-05-02T20:10:09;7.60;99.90
44695;DHT22;32845;59.422;17.930;2023-05-02T20:14:40;7.60;99.90
44695;DHT22;32845;59.422;17.930;2023-05-02T20:19:11;7.60;99.90
44695;DHT22;32845;59.422;17.930;2023-05-02T20:23:41;7.60;99.90
44695;DHT22;32845;59.422;17.930;2023-05-02T20:28:12;7.50;99.90
44695;DHT22;32845;59.422;17.930;2023-05-02T20:32:43;7.40;99.90
44695;DHT22;32845;59.422;17.930;2023-05-02T20:37:14;7.30;99.90
44695;DHT22;32845;59.422;17.930;2023-05-02T20:41:46;7.20;99.90
44695;DHT22;32845;59.422;17.930;2023-05-02T20:46:19;7.10;99.90
44695;DHT22;32845;59.422;17.930;2023-05-02T20:50:53;7.00;99.90
44695;DHT22;32845;59.422;17.930;2023-05-02T20:55:24;7.00;99.90
44695;DHT22;32845;59.422;17.930;2023-05-02T21:00:00;7.10;99.90
44695;DHT22;32845;59.422;17.930;2023-05-02T21:04:31;7.10;99.90
44695;DHT22;32845;59.422;17.930;2023-05-02T21:09:02;7.10;99.90
44695;DHT22;32845;59.422;17.930;2023-05-02T21:13:33;7.10;99.90
44695;DHT22;32845;59.422;17.930;2023-05-02T21:18:05;7.10;99.90
44695;DHT22;32845;59.422;17.930;2023-05-02T21:22:36;7.10;99.90
44695;DHT22;32845;59.422;17.930;2023-05-02T21:27:07;7.10;99.90
44695;DHT22;32845;59.422;17.930;2023-05-02T21:31:38;7.10;99.90
44695;DHT22;32845;59.422;17.930;2023-05-02T21:36:09;7.00;99.90
44695;DHT22;32845;59.422;17.930;2023-05-02T21:40:45;7.00;99.90
44695;DHT22;32845;59.422;17.930;2023-05-02T21:45:15;6.90;99.90
44695;DHT22;32845;59.422;17.930;2023-05-02T21:49:46;6.90;99.90
44695;DHT22;32845;59.422;17.930;2023-05-02T21:54:17;6.90;99.90
44695;DHT22;32845;59.422;17.930;2023-05-02T21:58:47;6.80;99.90
44695;DHT22;32845;59.422;17.930;2023-05-02T22:03:20;6.70;99.90
44695;DHT22;32845;59.422;17.930;2023-05-02T22:07:52;6.60;99.90
44695;DHT22;32845;59.422;17.930;2023-05-02T22:12:25;6.50;99.90
44695;DHT22;32845;59.422;17.930;2023-05-02T22:16:56;6.40;99.90
44695;DHT22;32845;59.422;17.930;2023-05-02T22:21:28;6.30;99.90
44695;DHT22;32845;59.422;17.930;2023-05-02T22:25:58;6.30;99.90
44695;DHT22;32845;59.422;17.930;2023-05-02T22:30:29;6.30;99.90
44695;DHT22;32845;59.422;17.930;2023-05-02T22:35:00;6.20;99.90
44695;DHT22;32845;59.422;17.930;2023-05-02T22:39:31;6.10;99.90
44695;DHT22;32845;59.422;17.930;2023-05-02T22:44:01;6.10;99.90
44695;DHT22;32845;59.422;17.930;2023-05-02T22:48:32;6.10;99.90
44695;DHT22;32845;59.422;17.930;2023-05-02T22:53:03;6.00;99.90
44695;DHT22;32845;59.422;17.930;2023-05-02T22:57:34;5.90;99.90
44695;DHT22;32845;59.422;17.930;2023-05-02T23:02:05;5.80;99.90
44695;DHT22;32845;59.422;17.930;2023-05-02T23:06:35;5.70;99.90
44695;DHT22;32845;59.422;17.930;2023-05-02T23:11:11;5.70;99.90
44695;DHT22;32845;59.422;17.930;2023-05-02T23:15:41;5.60;99.90
44695;DHT22;32845;59.422;17.930;2023-05-02T23:20:13;5.50;99.90
44695;DHT22;32845;59.422;17.930;2023-05-02T23:24:45;5.50;99.90
44695;DHT22;32845;59.422;17.930;2023-05-02T23:29:18;5.40;99.90
44695;DHT22;32845;59.422;17.930;2023-05-02T23:33:48;5.30;99.90
44695;DHT22;32845;59.422;17.930;2023-05-02T23:38:19;5.20;99.90
44695;DHT22;32845;59.422;17.930;2023-05-02T23:42:50;5.20;99.90
44695;DHT22;32845;59.422;17.930;2023-05-02T23:47:20;5.10;99.90
44695;DHT22;32845;59.422;17.930;2023-05-02T23:51:52;5.00;99.90
44695;DHT22;32845;59.422;17.930;2023-05-02T23:56:22;4.90;99.90
